Time;durP1;ratioP1;P1;durP2;ratioP2;P2;SDS_P1;SDS_P2;PMS_P1;PMS_P2;Temp;Humidity;BMP_temperature;BMP_pressure;BME280_temperature;BME280_humidity;BME280_pressure;Samples;Min_cycle;Max_cycle;Signal;HPM_P1;HPM_P2
2023/07/12 00:01:26;;;;;;;0.32;0.30;;;25.70;66.70;;;;;;5139286;27;20189;-85
2023/07/12 00:03:55;;;;;;;0.30;0.30;;;25.70;66.60;;;;;;5141698;27;20601;-85
2023/07/12 00:06:36;;;;;;;0.43;0.30;;;25.70;66.50;;;;;;5146043;27;20210;-86
2023/07/12 00:09:05;;;;;;;0.68;0.40;;;25.70;66.50;;;;;;5119877;27;20263;-86
2023/07/12 00:11:36;;;;;;;1.77;0.68;;;25.70;66.50;;;;;;5145544;27;20200;-86
2023/07/12 00:14:05;;;;;;;0.20;0.20;;;25.70;66.30;;;;;;5151671;27;20644;-86
2023/07/12 00:16:36;;;;;;;0.20;0.20;;;25.70;66.20;;;;;;5149041;27;20188;-87
2023/07/12 00:19:06;;;;;;;0.20;0.20;;;25.60;66.40;;;;;;5136693;27;20271;-85
2023/07/12 00:21:35;;;;;;;0.45;0.45;;;25.70;66.30;;;;;;5148848;27;20657;-87
2023/07/12 00:24:05;;;;;;;0.30;0.20;;;25.60;66.20;;;;;;5157760;27;21653;-85
2023/07/12 00:26:37;;;;;;;0.73;0.30;;;25.60;66.70;;;;;;5130156;27;20640;-86
2023/07/12 00:29:07;;;;;;;0.52;0.50;;;25.60;66.20;;;;;;5134384;27;20220;-86
2023/07/12 00:31:36;;;;;;;0.80;0.35;;;25.60;66.20;;;;;;5145664;27;20547;-86
2023/07/12 00:34:06;;;;;;;1.02;0.70;;;25.60;66.30;;;;;;5136005;27;20214;-86
2023/07/12 00:36:35;;;;;;;0.47;0.47;;;25.60;66.30;;;;;;5156348;27;20191;-85
2023/07/12 00:39:05;;;;;;;0.20;0.20;;;25.60;66.30;;;;;;5146291;27;20235;-85
2023/07/12 00:41:51;;;;;;;0.43;0.40;;;25.60;66.40;;;;;;5140067;27;20188;-85
2023/07/12 00:44:24;;;;;;;0.80;0.80;;;25.60;66.30;;;;;;5114931;27;20551;-85
2023/07/12 00:46:56;;;;;;;0.22;0.22;;;25.60;66.30;;;;;;5144057;27;20203;-86
2023/07/12 00:49:25;;;;;;;0.28;0.28;;;25.60;66.20;;;;;;5135013;27;20180;-85
2023/07/12 00:52:00;;;;;;;0.40;0.40;;;25.50;66.20;;;;;;5127366;27;20277;-88
2023/07/12 00:54:49;;;;;;;0.30;0.30;;;25.50;66.20;;;;;;5137231;27;20278;-85
2023/07/12 00:57:20;;;;;;;0.65;0.63;;;25.50;66.50;;;;;;5135831;27;20615;-85
2023/07/12 00:59:50;;;;;;;0.30;0.30;;;25.50;66.50;;;;;;5135415;27;20241;-86
2023/07/12 01:02:23;;;;;;;0.40;0.40;;;25.50;66.60;;;;;;5149641;27;20536;-86
2023/07/12 01:04:55;;;;;;;0.85;0.52;;;25.40;66.50;;;;;;5146970;27;20705;-87
2023/07/12 01:07:26;;;;;;;0.35;0.35;;;25.40;66.60;;;;;;5144237;27;20253;-87
2023/07/12 01:09:55;;;;;;;0.28;0.28;;;25.40;66.70;;;;;;5143270;27;20226;-86
2023/07/12 01:12:24;;;;;;;0.82;0.82;;;25.40;66.70;;;;;;5150107;27;20216;-86
2023/07/12 01:14:53;;;;;;;0.75;0.40;;;25.40;66.70;;;;;;5145765;27;20219;-85
2023/07/12 01:17:23;;;;;;;0.28;0.28;;;25.40;66.90;;;;;;5151746;27;20196;-86
2023/07/12 01:19:52;;;;;;;0.52;0.45;;;25.40;66.80;;;;;;5144390;27;20195;-85
2023/07/12 01:22:22;;;;;;;1.10;0.70;;;25.40;66.80;;;;;;5131362;27;20585;-88
2023/07/12 01:24:50;;;;;;;0.30;0.30;;;25.40;66.80;;;;;;5148147;27;20204;-86
2023/07/12 01:27:23;;;;;;;0.75;0.75;;;25.40;66.80;;;;;;5144165;27;20740;-87
2023/07/12 01:29:52;;;;;;;0.70;0.65;;;25.40;66.70;;;;;;5142585;27;20192;-85
2023/07/12 01:32:21;;;;;;;0.20;0.20;;;25.40;66.70;;;;;;5127278;27;20196;-86
2023/07/12 01:34:50;;;;;;;0.40;0.40;;;25.40;66.70;;;;;;5144441;27;20220;-88
2023/07/12 01:37:19;;;;;;;0.20;0.20;;;25.40;66.70;;;;;;5147161;27;20197;-85
2023/07/12 01:39:49;;;;;;;0.20;0.20;;;25.40;66.90;;;;;;5146427;27;20188;-84
2023/07/12 01:42:17;;;;;;;0.30;0.30;;;25.40;67.20;;;;;;5141534;27;20200;-87
2023/07/12 01:44:46;;;;;;;1.10;0.73;;;25.30;67.10;;;;;;5148433;27;20195;-87
2023/07/12 01:47:14;;;;;;;0.40;0.40;;;25.30;67.20;;;;;;5137643;27;20220;-88
2023/07/12 01:49:43;;;;;;;0.30;0.30;;;25.30;67.10;;;;;;5151153;27;20361;-86
2023/07/12 01:52:11;;;;;;;0.47;0.47;;;25.30;67.00;;;;;;5122581;27;20807;-86
2023/07/12 01:54:39;;;;;;;0.22;0.22;;;25.30;67.20;;;;;;5134142;27;20203;-86
2023/07/12 01:57:25;;;;;;;1.33;0.40;;;25.30;67.30;;;;;;5139331;27;20284;-86
2023/07/12 01:59:54;;;;;;;0.30;0.30;;;25.30;67.10;;;;;;5136109;27;20191;-86
2023/07/12 02:02:22;;;;;;;0.47;0.40;;;25.30;67.00;;;;;;5150447;27;20188;-87
2023/07/12 02:04:51;;;;;;;0.63;0.57;;;25.30;67.00;;;;;;5142526;27;20192;-87
2023/07/12 02:07:20;;;;;;;4.03;0.57;;;25.30;67.30;;;;;;5142999;27;20219;-88
2023/07/12 02:10:14;;;;;;;1.13;0.73;;;25.20;67.20;;;;;;5136344;27;20507;-86
2023/07/12 02:12:44;;;;;;;1.48;0.70;;;25.20;67.20;;;;;;5128209;27;20297;-87
2023/07/12 02:15:14;;;;;;;0.73;0.70;;;25.20;67.50;;;;;;5137509;27;20194;-86
2023/07/12 02:17:44;;;;;;;1.10;0.57;;;25.20;68.00;;;;;;5117765;27;20197;-86
2023/07/12 02:20:14;;;;;;;3.53;0.60;;;25.20;67.80;;;;;;5099213;27;20185;-85
2023/07/12 02:22:43;;;;;;;0.28;0.28;;;25.20;67.80;;;;;;5099713;27;20270;-87
2023/07/12 02:25:12;;;;;;;0.88;0.73;;;25.20;67.90;;;;;;5119334;27;20190;-87
2023/07/12 02:27:41;;;;;;;0.63;0.50;;;25.20;68.20;;;;;;5120160;27;20225;-86
2023/07/12 02:30:14;;;;;;;0.30;0.30;;;25.20;68.10;;;;;;5115641;27;20185;-87
2023/07/12 02:32:42;;;;;;;0.57;0.57;;;25.20;68.30;;;;;;5123975;27;20196;-85
2023/07/12 02:35:11;;;;;;;1.20;0.68;;;25.20;68.40;;;;;;5128022;27;20211;-86
2023/07/12 02:37:40;;;;;;;1.33;0.68;;;25.20;68.30;;;;;;5110279;27;20192;-86
2023/07/12 02:40:11;;;;;;;0.47;0.47;;;25.20;68.50;;;;;;5110703;27;20712;-86
2023/07/12 02:42:40;;;;;;;1.90;1.00;;;25.20;68.70;;;;;;5139481;27;20282;-86
2023/07/12 02:45:11;;;;;;;15.90;2.42;;;25.10;68.80;;;;;;5123636;27;20227;-87
2023/07/12 02:47:40;;;;;;;1.75;1.10;;;25.10;69.10;;;;;;5114858;27;20532;-86
2023/07/12 02:50:09;;;;;;;0.73;0.63;;;25.10;69.20;;;;;;5119829;27;20192;-87
2023/07/12 02:52:38;;;;;;;0.30;0.30;;;25.10;69.20;;;;;;5115053;27;20200;-87
2023/07/12 02:55:07;;;;;;;0.88;0.50;;;25.10;69.50;;;;;;5105629;27;20184;-87
2023/07/12 02:57:36;;;;;;;1.08;0.52;;;25.10;69.70;;;;;;5114014;27;20262;-84
2023/07/12 03:00:06;;;;;;;0.52;0.52;;;25.10;70.00;;;;;;5118280;27;20195;-86
2023/07/12 03:02:37;;;;;;;0.30;0.30;;;25.10;70.40;;;;;;5113736;27;20658;-87
2023/07/12 03:05:06;;;;;;;0.35;0.35;;;25.10;70.10;;;;;;5121345;27;20280;-86
2023/07/12 03:07:35;;;;;;;0.55;0.55;;;25.10;70.10;;;;;;5117827;27;20216;-87
2023/07/12 03:10:04;;;;;;;0.50;0.50;;;25.10;70.10;;;;;;5128860;27;20720;-85
2023/07/12 03:12:33;;;;;;;0.82;0.82;;;25.10;70.40;;;;;;5111871;27;20264;-86
2023/07/12 03:15:02;;;;;;;2.33;0.63;;;25.10;70.50;;;;;;5121223;27;20200;-85
2023/07/12 03:17:32;;;;;;;0.77;0.77;;;25.00;70.50;;;;;;5116338;27;20925;-84
2023/07/12 03:20:02;;;;;;;0.55;0.55;;;25.00;70.50;;;;;;5125361;27;20260;-88
2023/07/12 03:22:31;;;;;;;0.60;0.50;;;25.00;70.50;;;;;;5117038;27;20238;-88
2023/07/12 03:25:00;;;;;;;0.55;0.45;;;25.00;70.40;;;;;;5128310;27;20199;-87
2023/07/12 03:27:28;;;;;;;0.38;0.38;;;25.00;70.70;;;;;;5122479;27;21169;-83
2023/07/12 03:29:57;;;;;;;0.75;0.68;;;25.00;71.40;;;;;;5118991;27;20196;-86
2023/07/12 03:32:26;;;;;;;1.65;0.85;;;25.00;71.50;;;;;;5128287;27;20196;-87
2023/07/12 03:34:55;;;;;;;0.63;0.60;;;25.00;71.50;;;;;;5123649;27;20189;-86
2023/07/12 03:37:25;;;;;;;0.60;0.60;;;25.00;71.50;;;;;;5122967;27;20188;-85
2023/07/12 03:39:53;;;;;;;1.05;0.57;;;25.00;71.60;;;;;;5130275;27;20203;-85
2023/07/12 03:42:22;;;;;;;0.88;0.85;;;25.00;72.20;;;;;;5116215;27;20199;-86
2023/07/12 03:44:51;;;;;;;1.17;1.02;;;25.00;72.20;;;;;;5108738;27;20196;-86
2023/07/12 03:47:20;;;;;;;1.35;0.80;;;25.10;72.00;;;;;;5119789;27;20188;-87
2023/07/12 03:49:53;;;;;;;0.70;0.63;;;25.10;71.90;;;;;;5128265;27;20242;-86
2023/07/12 03:52:21;;;;;;;0.93;0.90;;;25.10;71.90;;;;;;5122172;27;20193;-88
2023/07/12 03:54:51;;;;;;;1.17;1.08;;;25.10;72.50;;;;;;5122330;27;20200;-87
2023/07/12 03:57:20;;;;;;;3.33;0.50;;;25.10;72.70;;;;;;5123942;27;20213;-86
2023/07/12 03:59:49;;;;;;;3.08;1.10;;;25.10;73.10;;;;;;5112793;27;20196;-87
2023/07/12 04:02:18;;;;;;;3.65;1.52;;;25.10;73.30;;;;;;5121480;27;20189;-87
2023/07/12 04:04:46;;;;;;;0.60;0.60;;;25.10;73.40;;;;;;5122298;27;20199;-88
2023/07/12 04:07:15;;;;;;;1.63;0.63;;;25.10;73.40;;;;;;5118610;27;20191;-87
2023/07/12 04:09:43;;;;;;;0.82;0.80;;;25.10;73.30;;;;;;5093339;28;20193;-86
2023/07/12 04:12:14;;;;;;;0.50;0.50;;;25.10;73.20;;;;;;5128726;27;20576;-87
2023/07/12 04:14:42;;;;;;;0.65;0.50;;;25.20;73.80;;;;;;5109745;27;20198;-87
2023/07/12 04:17:11;;;;;;;0.30;0.30;;;25.20;73.70;;;;;;5113475;27;20200;-85
2023/07/12 04:19:42;;;;;;;0.77;0.55;;;25.20;73.50;;;;;;5110315;27;20244;-84
2023/07/12 04:22:12;;;;;;;1.05;0.63;;;25.20;73.60;;;;;;5114217;27;20254;-87
2023/07/12 04:24:41;;;;;;;1.33;0.90;;;25.20;73.60;;;;;;5123726;27;20280;-86
2023/07/12 04:27:09;;;;;;;0.20;0.20;;;25.20;73.90;;;;;;5113736;27;20204;-85
2023/07/12 04:29:39;;;;;;;1.65;1.15;;;25.30;74.10;;;;;;5123503;27;20569;-88
2023/07/12 04:32:08;;;;;;;0.55;0.55;;;25.20;74.50;;;;;;5114903;27;20200;-85
2023/07/12 04:34:37;;;;;;;3.08;0.52;;;25.20;75.00;;;;;;5116375;27;20192;-86
2023/07/12 04:37:08;;;;;;;0.40;0.40;;;25.30;74.60;;;;;;5115967;27;20646;-88
2023/07/12 04:39:36;;;;;;;1.23;0.93;;;25.30;74.50;;;;;;5118142;27;20193;-87
2023/07/12 04:42:06;;;;;;;1.13;0.80;;;25.40;74.50;;;;;;5119455;27;20194;-85
2023/07/12 04:44:39;;;;;;;0.60;0.60;;;25.40;74.50;;;;;;5123247;27;20722;-86
2023/07/12 04:47:08;;;;;;;0.60;0.60;;;25.40;74.30;;;;;;5115626;27;20661;-86
2023/07/12 04:49:37;;;;;;;1.55;0.77;;;25.40;74.40;;;;;;5119224;27;20277;-86
2023/07/12 04:52:07;;;;;;;1.17;0.85;;;25.50;74.50;;;;;;5100735;27;20526;-85
2023/07/12 04:54:39;;;;;;;11.50;1.50;;;25.50;74.90;;;;;;5097870;27;20223;-86
2023/07/12 04:57:09;;;;;;;0.50;0.50;;;25.60;74.70;;;;;;5118669;27;20188;-85
2023/07/12 04:59:40;;;;;;;2.67;1.20;;;25.60;74.70;;;;;;5115195;27;20284;-87
2023/07/12 05:02:08;;;;;;;0.98;0.60;;;25.60;74.70;;;;;;5128450;27;20240;-86
2023/07/12 05:04:37;;;;;;;0.80;0.70;;;25.60;75.00;;;;;;5113346;27;20503;-88
2023/07/12 05:07:09;;;;;;;0.90;0.60;;;25.60;75.20;;;;;;5113792;27;20200;-88
2023/07/12 05:09:38;;;;;;;2.50;1.08;;;25.70;75.20;;;;;;5114274;27;20242;-86
2023/07/12 05:12:08;;;;;;;2.22;0.90;;;25.60;75.40;;;;;;5106646;27;20287;-88
2023/07/12 05:14:36;;;;;;;0.47;0.47;;;25.70;75.50;;;;;;5107336;27;20557;-86
2023/07/12 05:17:06;;;;;;;0.40;0.40;;;25.70;75.20;;;;;;5121235;27;20201;-85
2023/07/12 05:19:35;;;;;;;0.95;0.93;;;25.80;75.20;;;;;;5120226;27;20214;-87
2023/07/12 05:22:04;;;;;;;0.63;0.50;;;25.80;75.10;;;;;;5129370;27;20202;-87
2023/07/12 05:24:34;;;;;;;0.40;0.40;;;25.80;74.80;;;;;;5128960;27;20196;-87
2023/07/12 05:27:03;;;;;;;1.83;0.88;;;25.80;74.90;;;;;;5118486;27;20192;-87
2023/07/12 05:29:33;;;;;;;0.40;0.40;;;25.80;75.50;;;;;;5127473;27;20212;-88
2023/07/12 05:32:02;;;;;;;1.75;0.80;;;25.90;75.80;;;;;;5125480;27;20195;-88
2023/07/12 05:34:33;;;;;;;1.10;1.08;;;25.90;75.80;;;;;;5122391;27;20189;-89
2023/07/12 05:37:04;;;;;;;1.05;0.68;;;25.90;75.50;;;;;;5112745;27;20653;-88
2023/07/12 05:39:34;;;;;;;0.80;0.80;;;26.00;75.50;;;;;;5121443;27;20378;-89
2023/07/12 05:42:03;;;;;;;2.08;0.80;;;26.00;75.30;;;;;;5103517;27;20197;-88
2023/07/12 05:44:32;;;;;;;1.02;0.88;;;26.10;75.40;;;;;;5131448;27;20185;-89
2023/07/12 05:47:00;;;;;;;3.08;1.35;;;26.10;75.50;;;;;;5126398;27;20193;-89
2023/07/12 05:49:30;;;;;;;0.73;0.60;;;26.20;75.50;;;;;;5099254;27;20224;-88
2023/07/12 05:52:00;;;;;;;0.88;0.82;;;26.20;75.40;;;;;;5128997;27;20204;-89
2023/07/12 05:54:30;;;;;;;0.75;0.75;;;26.30;75.50;;;;;;5126037;27;20256;-87
2023/07/12 05:56:59;;;;;;;0.50;0.50;;;26.30;75.30;;;;;;5115727;27;20812;-89
2023/07/12 05:59:27;;;;;;;1.42;0.40;;;26.40;75.20;;;;;;5114588;27;20197;-88
2023/07/12 06:01:56;;;;;;;2.58;0.50;;;26.40;75.00;;;;;;5121811;27;20185;-87
2023/07/12 06:04:27;;;;;;;0.68;0.63;;;26.40;74.70;;;;;;5125112;27;20572;-89
2023/07/12 06:06:55;;;;;;;2.00;0.93;;;26.50;74.70;;;;;;5116272;27;20201;-88
2023/07/12 06:09:25;;;;;;;0.60;0.60;;;26.50;74.60;;;;;;5123883;27;20223;-89
2023/07/12 06:12:10;;;;;;;0.80;0.80;;;26.60;74.70;;;;;;5117420;27;20226;-87
2023/07/12 06:14:39;;;;;;;0.50;0.50;;;26.60;74.50;;;;;;5114330;27;20646;-89
2023/07/12 06:17:08;;;;;;;1.75;1.05;;;26.70;74.40;;;;;;5122015;27;20185;-88
2023/07/12 06:19:36;;;;;;;0.60;0.60;;;26.70;74.70;;;;;;5123700;27;20517;-87
2023/07/12 06:22:08;;;;;;;0.52;0.52;;;26.80;74.50;;;;;;5124612;27;20853;-88
2023/07/12 06:24:38;;;;;;;1.23;1.15;;;26.80;74.30;;;;;;5131854;27;20719;-88
2023/07/12 06:27:07;;;;;;;1.98;0.90;;;26.80;74.30;;;;;;5131628;27;20288;-87
2023/07/12 06:29:35;;;;;;;1.10;0.82;;;26.90;74.30;;;;;;5120355;27;20702;-87
2023/07/12 06:32:05;;;;;;;0.90;0.80;;;26.90;74.50;;;;;;5126168;27;20204;-86
2023/07/12 06:34:33;;;;;;;3.05;1.13;;;26.90;74.40;;;;;;5128705;27;20216;-89
2023/07/12 06:37:02;;;;;;;1.10;0.93;;;27.00;74.40;;;;;;5126703;27;20541;-88
2023/07/12 06:39:30;;;;;;;1.95;1.40;;;27.00;74.20;;;;;;5128643;27;20199;-86
2023/07/12 06:42:01;;;;;;;3.58;1.67;;;27.10;74.30;;;;;;5116818;27;20193;-88
2023/07/12 06:44:30;;;;;;;3.40;0.80;;;27.10;74.10;;;;;;5106501;27;20283;-88
2023/07/12 06:46:59;;;;;;;1.08;0.98;;;27.10;73.70;;;;;;5118387;27;20195;-88
2023/07/12 06:49:27;;;;;;;0.32;0.32;;;27.20;73.80;;;;;;5124366;27;20304;-89
2023/07/12 06:51:57;;;;;;;2.10;1.30;;;27.20;73.60;;;;;;5104398;27;20607;-88
2023/07/12 06:54:25;;;;;;;0.68;0.68;;;27.30;73.80;;;;;;5115630;27;20204;-89
2023/07/12 06:56:54;;;;;;;1.27;1.10;;;27.30;73.60;;;;;;5111304;27;20195;-89
2023/07/12 06:59:27;;;;;;;1.38;1.25;;;27.40;73.40;;;;;;5126184;27;20271;-88
2023/07/12 07:01:55;;;;;;;0.73;0.73;;;27.50;73.40;;;;;;5125150;27;20223;-89
2023/07/12 07:04:24;;;;;;;0.82;0.80;;;27.50;72.90;;;;;;5121648;27;20287;-88
2023/07/12 07:06:53;;;;;;;7.22;1.75;;;27.50;72.90;;;;;;5123241;27;20650;-88
2023/07/12 07:09:21;;;;;;;1.02;0.80;;;27.60;73.10;;;;;;5113146;27;20216;-84
2023/07/12 07:11:50;;;;;;;1.05;0.88;;;27.60;72.90;;;;;;5125839;27;20580;-90
2023/07/12 07:14:19;;;;;;;1.40;1.30;;;27.70;72.90;;;;;;5108977;27;20189;-90
2023/07/12 07:16:50;;;;;;;0.65;0.50;;;27.70;73.00;;;;;;5114252;27;20200;-89
2023/07/12 07:19:19;;;;;;;1.55;0.52;;;27.80;73.00;;;;;;5124479;27;20551;-89
2023/07/12 07:21:50;;;;;;;0.50;0.50;;;27.80;72.90;;;;;;5129631;27;20202;-88
2023/07/12 07:24:18;;;;;;;1.75;1.00;;;27.80;72.50;;;;;;5120795;27;20308;-89
2023/07/12 07:26:47;;;;;;;5.53;1.00;;;27.90;72.40;;;;;;5118586;27;20193;-87
2023/07/12 07:29:15;;;;;;;2.20;0.73;;;27.90;72.50;;;;;;5106297;27;20206;-87
2023/07/12 07:31:52;;;;;;;0.60;0.60;;;28.00;72.50;;;;;;5097767;27;20227;-88
2023/07/12 07:34:21;;;;;;;1.83;1.00;;;28.00;72.50;;;;;;5104435;27;20637;-89
2023/07/12 07:36:50;;;;;;;0.55;0.55;;;28.00;72.00;;;;;;5122642;27;20196;-89
2023/07/12 07:39:18;;;;;;;0.60;0.60;;;28.10;71.60;;;;;;5128510;27;20196;-89
2023/07/12 07:41:47;;;;;;;2.50;1.48;;;28.10;71.60;;;;;;5116620;27;20242;-88
2023/07/12 07:44:15;;;;;;;0.55;0.45;;;28.20;71.50;;;;;;5136225;27;20191;-88
2023/07/12 07:46:47;;;;;;;2.55;1.27;;;28.30;71.50;;;;;;5119347;27;20569;-89
2023/07/12 07:49:17;;;;;;;2.28;1.58;;;28.30;71.40;;;;;;5120320;27;20656;-88
2023/07/12 07:51:46;;;;;;;1.02;0.90;;;28.30;70.90;;;;;;5112949;27;20642;-88
2023/07/12 07:54:15;;;;;;;1.35;0.80;;;28.40;71.00;;;;;;5116587;27;20287;-85
2023/07/12 07:56:43;;;;;;;0.95;0.90;;;28.40;71.20;;;;;;5121714;27;20339;-89
2023/07/12 07:59:12;;;;;;;0.43;0.43;;;28.50;71.20;;;;;;5112791;27;20197;-88
2023/07/12 08:01:42;;;;;;;4.43;1.00;;;28.50;70.80;;;;;;5114367;27;20566;-88
2023/07/12 08:04:10;;;;;;;1.25;0.88;;;28.50;70.60;;;;;;5127953;27;20350;-88
2023/07/12 08:06:41;;;;;;;0.85;0.68;;;28.50;69.70;;;;;;5121134;27;20215;-87
2023/07/12 08:09:09;;;;;;;0.63;0.63;;;28.60;69.70;;;;;;5130085;27;20193;-86
2023/07/12 08:11:38;;;;;;;3.78;0.77;;;28.60;69.70;;;;;;5123329;27;20234;-88
2023/07/12 08:14:07;;;;;;;1.08;0.50;;;28.70;69.70;;;;;;5129833;27;20219;-87
2023/07/12 08:16:37;;;;;;;1.27;0.82;;;28.70;69.70;;;;;;5124187;27;20200;-87
2023/07/12 08:19:06;;;;;;;0.63;0.63;;;28.70;69.50;;;;;;5118978;27;20602;-87
2023/07/12 08:21:47;;;;;;;1.27;1.13;;;28.70;69.30;;;;;;5118749;27;20203;-87
2023/07/12 08:24:16;;;;;;;1.05;0.60;;;28.70;69.00;;;;;;5117222;27;20187;-87
2023/07/12 08:26:44;;;;;;;2.05;1.10;;;28.70;69.00;;;;;;5127112;27;20201;-85
2023/07/12 08:29:29;;;;;;;1.73;1.30;;;28.80;69.10;;;;;;5118003;27;20250;-84
2023/07/12 08:31:57;;;;;;;1.20;0.90;;;28.90;69.40;;;;;;5121479;27;20708;-85
2023/07/12 08:34:26;;;;;;;0.98;0.65;;;28.90;68.60;;;;;;5119809;27;20201;-85
2023/07/12 08:36:56;;;;;;;1.58;1.13;;;28.90;68.70;;;;;;5117980;27;20211;-84
2023/07/12 08:39:25;;;;;;;1.38;1.25;;;28.90;67.90;;;;;;5121671;27;20186;-81
2023/07/12 08:41:53;;;;;;;0.65;0.63;;;29.00;68.00;;;;;;5120476;27;20199;-82
2023/07/12 08:44:23;;;;;;;1.52;0.85;;;29.00;67.50;;;;;;5133361;27;20661;-83
2023/07/12 08:46:54;;;;;;;2.13;1.05;;;29.00;67.00;;;;;;5116578;27;20591;-86
2023/07/12 08:49:24;;;;;;;0.85;0.85;;;29.00;66.70;;;;;;5128616;27;20196;-87
2023/07/12 08:51:58;;;;;;;0.68;0.47;;;29.00;66.60;;;;;;5118374;27;20719;-86
2023/07/12 08:54:33;;;;;;;1.63;0.85;;;29.10;67.00;;;;;;5120917;27;20204;-86
2023/07/12 08:57:16;;;;;;;0.63;0.63;;;29.10;67.20;;;;;;5122400;27;20199;-86
2023/07/12 08:59:48;;;;;;;2.63;1.02;;;29.20;67.20;;;;;;5124325;27;20714;-85
2023/07/12 09:02:22;;;;;;;0.40;0.40;;;29.20;67.20;;;;;;5114181;27;20283;-86
2023/07/12 09:04:51;;;;;;;0.88;0.70;;;29.30;67.10;;;;;;5122481;27;20204;-85
2023/07/12 09:07:28;;;;;;;2.63;0.80;;;29.30;66.50;;;;;;5123148;27;20191;-87
2023/07/12 09:09:59;;;;;;;1.58;1.05;;;29.40;66.40;;;;;;5118648;27;20200;-86
2023/07/12 09:12:30;;;;;;;0.85;0.82;;;29.40;66.60;;;;;;5120690;27;20231;-84
2023/07/12 09:15:00;;;;;;;1.95;0.82;;;29.50;66.60;;;;;;5112060;27;20651;-88
2023/07/12 09:17:34;;;;;;;1.50;1.00;;;29.50;66.60;;;;;;5129658;27;20181;-86
2023/07/12 09:20:21;;;;;;;0.80;0.75;;;29.60;66.60;;;;;;5120432;27;20189;-85
2023/07/12 09:22:51;;;;;;;1.20;0.90;;;29.60;66.60;;;;;;5101790;27;20192;-85
2023/07/12 09:25:23;;;;;;;1.80;1.20;;;29.70;66.70;;;;;;5119518;27;20193;-84
2023/07/12 09:27:52;;;;;;;0.90;0.65;;;29.70;66.90;;;;;;5119745;27;20672;-84
2023/07/12 09:30:23;;;;;;;0.60;0.60;;;29.70;67.00;;;;;;5123342;27;20746;-84
2023/07/12 09:32:55;;;;;;;0.70;0.60;;;29.80;66.90;;;;;;5116987;27;20252;-86
2023/07/12 09:35:26;;;;;;;1.00;0.90;;;29.80;66.80;;;;;;5128020;27;20183;-83
2023/07/12 09:38:01;;;;;;;7.15;1.50;;;29.90;66.60;;;;;;5127458;27;20190;-84
2023/07/12 09:40:38;;;;;;;1.10;1.00;;;29.90;65.00;;;;;;5120298;27;20283;-84
2023/07/12 09:43:16;;;;;;;0.65;0.57;;;30.00;65.00;;;;;;5094702;27;20180;-86
2023/07/12 09:45:50;;;;;;;2.10;1.17;;;30.00;64.60;;;;;;5112892;27;20193;-87
2023/07/12 09:48:43;;;;;;;0.85;0.77;;;30.10;64.90;;;;;;5118073;27;20267;-84
2023/07/12 09:51:28;;;;;;;1.35;0.75;;;30.10;64.90;;;;;;5122805;27;20207;-84
2023/07/12 09:54:06;;;;;;;1.83;0.82;;;30.20;64.70;;;;;;5122602;27;20199;-84
2023/07/12 09:56:41;;;;;;;0.65;0.55;;;30.20;64.40;;;;;;5121647;27;20573;-85
2023/07/12 09:59:24;;;;;;;0.82;0.82;;;30.30;64.70;;;;;;5107199;27;20193;-86
2023/07/12 10:01:56;;;;;;;0.65;0.65;;;30.30;64.70;;;;;;5118258;27;20193;-86
2023/07/12 10:04:40;;;;;;;2.08;0.82;;;30.40;64.40;;;;;;5124472;27;20497;-85
2023/07/12 10:07:17;;;;;;;1.85;1.15;;;30.50;64.20;;;;;;5112467;27;20667;-85
2023/07/12 10:09:49;;;;;;;1.10;0.88;;;30.60;64.10;;;;;;5125135;27;20195;-86
2023/07/12 10:12:37;;;;;;;3.75;1.58;;;30.60;62.80;;;;;;5116625;27;20234;-85
2023/07/12 10:15:06;;;;;;;3.08;1.10;;;30.60;62.40;;;;;;5107668;27;20188;-86
2023/07/12 10:17:38;;;;;;;0.57;0.55;;;30.60;62.40;;;;;;5123009;27;20196;-84
2023/07/12 10:20:14;;;;;;;1.77;0.93;;;30.70;62.20;;;;;;5123560;27;20552;-85
2023/07/12 10:22:46;;;;;;;1.75;0.70;;;30.70;61.90;;;;;;5111434;27;20196;-88
2023/07/12 10:25:23;;;;;;;1.73;1.05;;;30.80;62.10;;;;;;5120357;27;20180;-87
2023/07/12 10:27:58;;;;;;;0.63;0.63;;;30.90;62.10;;;;;;5113729;27;20516;-84
2023/07/12 10:30:29;;;;;;;1.10;0.98;;;31.00;62.20;;;;;;5116919;27;20201;-85
2023/07/12 10:33:03;;;;;;;0.40;0.40;;;31.00;62.10;;;;;;5112909;27;20229;-82
2023/07/12 10:35:42;;;;;;;0.50;0.50;;;31.10;61.70;;;;;;5110095;27;20189;-83
2023/07/12 10:38:16;;;;;;;0.82;0.82;;;31.10;60.70;;;;;;5112551;27;20541;-84
2023/07/12 10:40:51;;;;;;;0.95;0.82;;;31.20;60.70;;;;;;5116646;27;20711;-85
2023/07/12 10:43:27;;;;;;;1.30;0.93;;;31.30;61.20;;;;;;5128839;27;20188;-83
2023/07/12 10:46:02;;;;;;;2.72;1.23;;;31.40;61.40;;;;;;5106501;27;20196;-86
2023/07/12 10:48:31;;;;;;;1.90;0.63;;;31.40;61.10;;;;;;5114789;27;20192;-84
2023/07/12 10:51:18;;;;;;;2.72;1.48;;;31.40;59.30;;;;;;5119021;27;20188;-87
2023/07/12 10:53:50;;;;;;;1.05;0.95;;;31.50;59.80;;;;;;5110870;27;20188;-84
2023/07/12 10:56:25;;;;;;;2.75;1.63;;;31.50;60.20;;;;;;5112047;27;20662;-83
2023/07/12 10:58:57;;;;;;;1.40;1.27;;;31.40;59.20;;;;;;5111535;27;20188;-83
2023/07/12 11:01:52;;;;;;;0.98;0.95;;;31.50;59.50;;;;;;5119846;27;20198;-87
2023/07/12 11:04:35;;;;;;;1.83;0.80;;;31.60;59.40;;;;;;5116741;27;20593;-86
2023/07/12 11:07:37;;;;;;;0.65;0.60;;;31.60;59.50;;;;;;5119627;27;20184;-85
2023/07/12 11:10:23;;;;;;;0.80;0.80;;;31.60;58.90;;;;;;5116681;27;20288;-87
2023/07/12 11:13:11;;;;;;;1.10;0.93;;;31.70;59.30;;;;;;5121328;27;20231;-86
2023/07/12 11:15:59;;;;;;;2.22;1.33;;;31.80;59.50;;;;;;5117511;27;20221;-85
2023/07/12 11:18:34;;;;;;;0.43;0.43;;;31.80;59.40;;;;;;5120016;27;20706;-86
2023/07/12 11:21:05;;;;;;;0.40;0.40;;;31.90;59.70;;;;;;5127291;27;20192;-85
2023/07/12 11:23:49;;;;;;;1.27;1.05;;;31.90;59.40;;;;;;5119186;27;20555;-85
2023/07/12 11:26:25;;;;;;;2.38;0.93;;;32.00;59.40;;;;;;5120619;27;20192;-85
2023/07/12 11:29:17;;;;;;;0.73;0.60;;;32.00;58.90;;;;;;5114888;27;20189;-83
2023/07/12 11:31:49;;;;;;;1.35;0.93;;;32.10;59.00;;;;;;5113602;27;20209;-85
2023/07/12 11:34:23;;;;;;;1.17;0.90;;;32.10;58.10;;;;;;5118753;27;20181;-85
2023/07/12 11:36:56;;;;;;;5.15;1.25;;;32.20;58.50;;;;;;5117628;27;21935;-85
2023/07/12 11:39:27;;;;;;;2.42;0.98;;;32.20;58.40;;;;;;5109066;27;20539;-87
2023/07/12 11:41:57;;;;;;;1.55;1.02;;;32.30;58.10;;;;;;5124482;27;20194;-84
2023/07/12 11:44:27;;;;;;;0.95;0.90;;;32.40;58.30;;;;;;5114805;27;20199;-86
2023/07/12 11:46:59;;;;;;;2.03;1.10;;;32.40;58.30;;;;;;5120420;27;20575;-83
2023/07/12 11:49:30;;;;;;;1.23;1.13;;;32.50;58.30;;;;;;5121790;27;20193;-84
2023/07/12 11:52:04;;;;;;;1.92;0.77;;;32.50;58.20;;;;;;5123589;27;20672;-84
2023/07/12 11:54:35;;;;;;;1.75;1.02;;;32.50;57.40;;;;;;5127088;27;20192;-86
2023/07/12 11:57:06;;;;;;;0.80;0.77;;;32.60;57.10;;;;;;5115776;27;20221;-85
2023/07/12 11:59:37;;;;;;;0.82;0.70;;;32.60;56.40;;;;;;5118014;27;20476;-86
2023/07/12 12:02:14;;;;;;;1.27;0.98;;;32.70;56.80;;;;;;5123404;27;20192;-89
2023/07/12 12:04:42;;;;;;;2.58;0.60;;;32.70;55.50;;;;;;5122983;27;20631;-84
2023/07/12 12:07:20;;;;;;;1.02;0.93;;;32.80;55.80;;;;;;5117861;27;20238;-85
2023/07/12 12:09:50;;;;;;;1.10;0.95;;;32.90;56.00;;;;;;5131900;27;20185;-87
2023/07/12 12:12:21;;;;;;;1.08;0.88;;;32.90;55.80;;;;;;5116905;27;20231;-86
2023/07/12 12:14:52;;;;;;;1.25;0.95;;;32.90;55.90;;;;;;5121505;27;20198;-87
2023/07/12 12:17:25;;;;;;;1.15;0.95;;;33.00;56.10;;;;;;5132488;27;20203;-86
2023/07/12 12:20:05;;;;;;;0.88;0.88;;;33.00;56.50;;;;;;5129175;27;20639;-85
2023/07/12 12:22:34;;;;;;;1.17;1.08;;;33.10;56.90;;;;;;5121449;27;20188;-88
2023/07/12 12:25:03;;;;;;;1.65;1.05;;;33.20;56.30;;;;;;5124469;27;20228;-83
2023/07/12 12:27:37;;;;;;;0.65;0.65;;;33.20;56.40;;;;;;5122725;27;20192;-84
2023/07/12 12:30:18;;;;;;;1.10;0.93;;;33.10;55.40;;;;;;5129575;27;20188;-85
2023/07/12 12:32:57;;;;;;;0.85;0.60;;;33.10;55.10;;;;;;5120839;27;20211;-86
2023/07/12 12:35:25;;;;;;;0.95;0.85;;;33.20;55.70;;;;;;5119902;27;20245;-86
2023/07/12 12:37:55;;;;;;;1.95;1.23;;;33.30;56.30;;;;;;5123185;27;20192;-86
2023/07/12 12:40:24;;;;;;;0.47;0.47;;;33.30;56.50;;;;;;5120691;27;20188;-83
2023/07/12 12:42:58;;;;;;;1.90;1.30;;;33.40;56.00;;;;;;5126743;27;20284;-85
2023/07/12 12:45:32;;;;;;;1.27;1.10;;;33.40;56.00;;;;;;5131892;27;20189;-85
2023/07/12 12:48:04;;;;;;;0.68;0.68;;;33.40;56.30;;;;;;5125125;27;20212;-86
2023/07/12 12:50:38;;;;;;;1.42;1.13;;;33.40;56.60;;;;;;5122962;27;20224;-86
2023/07/12 12:53:12;;;;;;;2.38;1.60;;;33.50;55.70;;;;;;5127466;27;20213;-86
2023/07/12 12:56:01;;;;;;;0.73;0.73;;;33.50;55.50;;;;;;5117367;27;20217;-84
2023/07/12 12:58:32;;;;;;;0.47;0.47;;;33.60;55.60;;;;;;5120333;27;20192;-88
2023/07/12 13:01:22;;;;;;;0.80;0.73;;;33.60;55.70;;;;;;5120285;27;20201;-86
2023/07/12 13:03:54;;;;;;;0.75;0.75;;;33.70;55.80;;;;;;5126871;27;20539;-84
2023/07/12 13:06:27;;;;;;;1.73;1.25;;;33.70;55.30;;;;;;5124479;27;20215;-86
2023/07/12 13:08:56;;;;;;;2.90;1.88;;;33.70;55.40;;;;;;5127790;27;20197;-86
2023/07/12 13:11:28;;;;;;;0.75;0.75;;;33.70;55.20;;;;;;5140081;27;20189;-87